Latest Coastal Weather Observations for Broome Port

IDW60701

Issued at 8:12 am WST Monday 8 February 2016 (issued every 10 minutes, with the page automatically refreshed every 10 minutes)

About coastal observations | Map of coastal stations | Coastal observations for WA | Marine services | Other Formats
Station Details ID: 003102 Name: BROOME NTC AWS Lat: -18.00 Lon: 122.22 Height: 0.0 m
Data from the previous 72 hours. | See also: Recent months for locations in Western Australia
Date/Time
WST
Temp

°C
Wind Pressure Rain
since 9am
mm
Weather Cloud Vis
km
Sea
Height
m
Swell
Dir
 
Speed
knots
Gust
knots
hPa Trend Height
m
Period
s
Dir
08/08:00am 29.6 WSW 8 10 1008.5 - - - - - - - - -
08/07:30am 29.5 SW 8 11 1008.4 - - - - - - - - -
08/07:00am 29.7 SW 9 13 1008.4 - - - - - - - - -
08/06:30am 29.6 SW 11 13 1008.0 - - - - - - - - -
08/06:00am 29.6 WSW 12 15 1007.8 - - - - - - - - -
08/05:30am 29.9 WSW 11 12 1007.7 - - - - - - - - -
08/05:00am 29.8 WSW 8 10 1007.7 - - - - - - - - -
08/04:30am 29.8 WSW 10 12 1007.3 - - - - - - - - -
08/04:00am 29.7 WSW 12 14 1007.3 - - - - - - - - -
08/03:30am 29.9 SW 10 13 1007.4 - - - - - - - - -
08/03:00am 29.8 SW 9 13 1007.8 - - - - - - - - -
08/02:30am 29.8 SW 10 14 1007.8 - - - - - - - - -
08/02:00am 29.7 W 6 8 1007.5 - - - - - - - - -
08/01:30am 29.6 WNW 9 11 1007.3 - - - - - - - - -
08/01:00am 29.5 W 7 9 1007.7 - - - - - - - - -
08/12:30am 29.6 W 7 10 1008.1 - - - - - - - - -
08/12:00am 29.4 WNW 7 10 1008.2 - - - - - - - - -
 
Date/Time
WST
Temp

°C
Wind Pressure Rain
since 9am
mm
Weather Cloud Vis
km
Sea
Height
m
Swell
Dir
 
Speed
knots
Gust
knots
hPa Trend Height
m
Period
s
Dir
07/11:30pm 29.4 WNW 8 10 1008.7 - - - - - - - - -
07/11:00pm 29.5 WNW 10 12 1008.9 - - - - - - - - -
07/10:30pm 29.6 WNW 9 11 1009.1 - - - - - - - - -
07/10:00pm 29.6 NW 7 9 1009.1 - - - - - - - - -
07/09:30pm 29.7 WNW 8 10 1008.9 - - - - - - - - -
07/09:00pm 29.9 WNW 8 10 1008.5 - - - - - - - - -
07/08:30pm 29.9 WNW 8 11 1008.1 - - - - - - - - -
07/08:00pm 30.1 WNW 8 11 1007.8 - - - - - - - - -
07/07:30pm 30.2 NW 8 11 1007.4 - - - - - - - - -
07/07:00pm 30.2 WNW 10 12 1006.7 - - - - - - - - -
07/06:30pm 30.4 NW 9 11 1006.4 - - - - - - - - -
07/06:00pm 30.7 WNW 10 13 1005.9 - - - - - - - - -
07/05:30pm 30.8 WNW 12 14 1005.6 - - - - - - - - -
07/05:00pm 30.8 NW 13 15 1005.1 - - - - - - - - -
07/04:30pm 31.0 NW 13 17 1004.9 - - - - - - - - -
07/04:00pm 30.8 W 13 16 1004.7 - - - - - - - - -
07/03:30pm 30.8 W 14 20 1004.8 - - - - - - - - -
07/03:00pm 30.6 W 15 19 1005.1 - - - - - - - - -
07/02:30pm 31.0 W 15 19 1005.3 - - - - - - - - -
07/02:00pm 30.4 WNW 17 19 1005.3 - - - - - - - - -
07/01:30pm 30.3 WNW 16 19 1005.6 - - - - - - - - -
07/01:00pm 30.4 WNW 15 17 1006.0 - - - - - - - - -
07/12:30pm 30.2 WNW 14 17 1006.5 - - - - - - - - -
07/12:00pm 30.1 WNW 12 15 1006.8 - - - - - - - - -
07/11:30am 30.0 WNW 9 11 1007.1 - - - - - - - - -
07/11:00am 29.8 WNW 8 10 1007.4 - - - - - - - - -
07/10:30am 30.0 WSW 6 9 1007.5 - - - - - - - - -
07/10:00am 29.9 W 5 7 1007.7 - - - - - - - - -
07/09:30am 30.0 SW 5 6 1007.7 - - - - - - - - -
07/09:00am 29.9 SW 3 5 1007.8 - - - - - - - - -
07/08:30am 29.3 SW 3 4 1007.5 - - - - - - - - -
07/08:00am 29.5 SSW 2 4 1007.4 - - - - - - - - -
07/07:30am 28.9 SW 2 4 1007.1 - - - - - - - - -
07/07:00am 28.9 SSW 4 5 1007.0 - - - - - - - - -
07/06:30am 28.7 S 4 6 1006.8 - - - - - - - - -
07/06:00am 28.5 SW 6 9 1006.6 - - - - - - - - -
07/05:30am 28.5 SW 7 8 1006.3 - - - - - - - - -
07/05:00am 28.4 SSW 9 10 1006.2 - - - - - - - - -
07/04:30am 28.5 SW 9 11 1006.2 - - - - - - - - -
07/04:00am 29.0 SW 10 14 1006.1 - - - - - - - - -
07/03:30am 29.1 SW 13 15 1006.0 - - - - - - - - -
07/03:00am 29.1 WSW 11 13 1005.9 - - - - - - - - -
07/02:30am 29.1 WSW 11 13 1005.9 - - - - - - - - -
07/02:00am 29.1 WSW 10 13 1005.7 - - - - - - - - -
07/01:30am 28.9 W 9 12 1005.9 - - - - - - - - -
07/01:00am 28.9 W 8 10 1006.1 - - - - - - - - -
07/12:30am 28.8 W 8 10 1006.3 - - - - - - - - -
07/12:00am 28.8 WNW 8 11 1006.3 - - - - - - - - -
 
Date/Time
WST
Temp

°C
Wind Pressure Rain
since 9am
mm
Weather Cloud Vis
km
Sea
Height
m
Swell
Dir
 
Speed
knots
Gust
knots
hPa Trend Height
m
Period
s
Dir
06/11:30pm 28.9 WNW 8 10 1006.6 - - - - - - - - -
06/11:00pm 28.8 NW 4 5 1007.2 - - - - - - - - -
06/10:30pm 28.9 NNW 4 6 1007.3 - - - - - - - - -
06/10:00pm 28.9 NW 8 9 1007.1 - - - - - - - - -
06/09:30pm 29.0 NW 8 11 1007.1 - - - - - - - - -
06/09:00pm 29.0 NW 9 11 1006.8 - - - - - - - - -
06/08:30pm 29.1 WNW 12 14 1006.4 - - - - - - - - -
06/08:00pm 29.1 WNW 13 15 1005.5 - - - - - - - - -
06/07:30pm 29.1 W 13 15 1005.6 - - - - - - - - -
06/07:00pm 29.2 W 11 13 1005.7 - - - - - - - - -
06/06:30pm 29.2 W 8 11 1005.7 - - - - - - - - -
06/06:00pm 29.3 WNW 6 10 1005.3 - - - - - - - - -
06/05:30pm 29.6 W 8 13 1005.5 - - - - - - - - -
06/05:00pm 29.4 WNW 15 17 1004.8 - - - - - - - - -
06/04:30pm 29.6 WNW 15 20 1004.5 - - - - - - - - -
06/04:00pm 29.7 WNW 17 21 1004.1 - - - - - - - - -
06/03:30pm 29.8 WNW 18 21 1004.3 - - - - - - - - -
06/03:00pm 29.8 WNW 17 21 1004.6 - - - - - - - - -
06/02:30pm 29.6 WNW 16 19 1005.0 - - - - - - - - -
06/02:00pm 29.7 WNW 15 18 1005.3 - - - - - - - - -
06/01:30pm 29.7 WNW 14 18 1005.7 - - - - - - - - -
06/01:00pm 29.4 WNW 13 16 1005.9 - - - - - - - - -
06/12:30pm 29.6 WNW 12 15 1006.2 - - - - - - - - -
06/12:00pm 29.4 WNW 12 15 1006.6 - - - - - - - - -
06/11:30am 29.5 WNW 12 15 1007.0 - - - - - - - - -
06/11:00am 29.4 WNW 11 16 1007.3 - - - - - - - - -
06/10:30am 29.5 W 10 12 1007.6 - - - - - - - - -
06/10:00am 29.4 W 7 10 1008.0 - - - - - - - - -
06/09:30am 29.4 WSW 6 8 1008.3 - - - - - - - - -
06/09:00am 29.5 SW 6 10 1008.5 - - - - - - - - -
06/08:30am 29.4 W 9 12 1008.4 - - - - - - - - -
06/08:00am 29.3 WSW 9 11 1008.2 - - - - - - - - -
06/07:30am 29.3 WSW 10 12 1007.9 - - - - - - - - -
06/07:00am 29.1 WSW 12 14 1008.0 - - - - - - - - -
06/06:30am 28.9 WSW 10 13 1007.4 - - - - - - - - -
06/06:00am 28.8 WSW 10 13 1007.2 - - - - - - - - -
06/05:30am 28.9 WSW 11 13 1006.8 - - - - - - - - -
06/05:00am 28.9 WSW 11 13 1006.8 - - - - - - - - -
06/04:30am 28.9 WSW 10 12 1006.9 - - - - - - - - -
06/04:00am 28.6 WNW 7 9 1006.4 - - - - - - - - -
06/03:30am 28.6 WNW 8 10 1006.2 - - - - - - - - -
06/03:00am 28.6 WNW 7 9 1006.1 - - - - - - - - -
06/02:30am 28.6 WNW 7 10 1006.1 - - - - - - - - -
06/02:00am 29.1 WSW 8 9 1006.4 - - - - - - - - -
06/01:30am 28.9 WSW 10 12 1006.5 - - - - - - - - -
06/01:00am 29.1 WSW 10 11 1006.7 - - - - - - - - -
06/12:30am 29.0 WSW 9 11 1007.0 - - - - - - - - -
06/12:00am 29.1 W 7 10 1007.2 - - - - - - - - -
 
Date/Time
WST
Temp

°C
Wind Pressure Rain
since 9am
mm
Weather Cloud Vis
km
Sea
Height
m
Swell
Dir
 
Speed
knots
Gust
knots
hPa Trend Height
m
Period
s
Dir
05/11:30pm 29.0 W 8 10 1007.6 - - - - - - - - -
05/11:00pm 29.0 W 9 12 1007.6 - - - - - - - - -
05/10:30pm 29.0 W 11 14 1007.6 - - - - - - - - -
05/10:00pm 29.0 WNW 12 15 1007.4 - - - - - - - - -
05/09:30pm 29.1 WNW 11 13 1007.4 - - - - - - - - -
05/09:00pm 29.2 WNW 13 15 1007.3 - - - - - - - - -
05/08:30pm 29.3 WNW 12 14 1006.8 - - - - - - - - -
05/08:00pm 29.3 WNW 11 14 1006.6 - - - - - - - - -
05/07:30pm 29.3 WNW 13 16 1005.9 - - - - - - - - -
05/07:00pm 29.2 WNW 13 15 1005.4 - - - - - - - - -
05/06:30pm 29.3 WNW 13 16 1005.3 - - - - - - - - -
05/06:00pm 29.3 WNW 14 17 1004.7 - - - - - - - - -
05/05:30pm 29.4 WNW 15 17 1004.6 - - - - - - - - -
05/05:00pm 29.7 NW 15 18 1004.4 - - - - - - - - -
05/04:30pm 29.9 WNW 15 18 1004.2 - - - - - - - - -
05/04:00pm 29.7 WNW 15 18 1004.2 - - - - - - - - -
05/03:30pm 29.7 W 13 17 1004.5 - - - - - - - - -
05/03:00pm 29.5 W 15 17 1004.5 - - - - - - - - -
05/02:30pm 29.6 W 13 17 1004.7 - - - - - - - - -
05/02:00pm 29.5 W 12 15 1005.2 - - - - - - - - -
05/01:30pm 29.4 W 11 14 1005.6 - - - - - - - - -
05/01:00pm 29.3 WNW 11 14 1005.8 - - - - - - - - -
05/12:30pm 29.2 WNW 11 14 1006.1 - - - - - - - - -
05/12:00pm 29.2 WNW 9 12 1006.5 - - - - - - - - -
05/11:30am 29.2 WNW 8 11 1006.9 - - - - - - - - -
05/11:00am 29.2 WNW 9 12 1007.3 - - - - - - - - -
05/10:30am 29.2 WNW 8 11 1007.7 - - - - - - - - -
05/10:00am 29.0 WNW 9 12 1008.1 - - - - - - - - -
05/09:30am 29.1 WNW 10 13 1008.4 - - - - - - - - -
05/09:00am 29.1 WNW 10 12 1008.4 - - - - - - - - -
05/08:30am 28.9 WNW 9 12 1008.4 - - - - - - - - -

Other Formats:

Comma delimited format used in spreadsheet applications
http://www.bom.gov.au/fwo/IDW60701/IDW60701.95202.axf

JavaScript Object Notation format (JSON) in row-major order
http://www.bom.gov.au/fwo/IDW60701/IDW60701.95202.json